Forest fire From: 19-07-2018 17:00 Until: 20-07-2018 16:00 warning for: Forest fire Level: Yellow info button
suomi:
Metsäpalovaroitus on voimassa.

svenska:
Varning för skogsbrand gäller.

english:
A forest fire warning is in force. 

Extreme high temperature From: 19-07-2018 17:00 Until: 23:00 warning for: Extreme high temperature Level: Yellow info button
suomi:
Hellevaroitus: Lähivuorokauden aikana on odotettavissa tukalaa hellettä.

svenska:
Varning för värmebölja: Under det närmaste dygnet är den svåra hettan att vänta.

english:
Heat wave warning: Warm weather is expected during the coming 24 hours. 


Thunder radar more information blitzortung!


Löydät sääaseman tiedot myös:

European Weather Network

Finland Weather Exchange

Weather Underground

AWEKAS



Weather Underground säähistoriasivu

Päivittäin yhteenveto Huhtikuu 22, 2017 Yksiköt:  Englantilaiset    Metriset   Molemmat
« Edellinen Päivä
Seuraava Päivä »
Päivittäin Viikoittain Kuukausittain Vuosittain Mukautettu
  Korkea: Matala: Keskiarvo:
Lämpötila: TemperatureC °F -1.5 °F 2.5 °F
Kastepiste: DewpointC °F -4.3 °F -0.7 °F
Kosteus: Humidity % 63 % 79 %
Tuulen nopeus: WindSpeedKMH mph 0.0 mph 3.5 mph
Tuulenpuuska: WindSpeedGustKMH mph - -
Tuuli:- - WNW
Ilmanpaine: PressurehPa in 985.3 in -
Sade: 0.0 in    
Historical Graphs
 
 
Taulukkotiedot Huhtikuu 22, 2017
Aika Lämpötila Kastepiste Ilmanpaine Tuuli Tuulen nopeus Tuulenpuuska Kosteus Sademäärä (tunneittain)
TemperatureC °F DewpointC °F PressurehPa in Calm     Humidity % HourlyPrecipMM in
00:00 0.7 °F -0.4 °F 985.3 in Calm     92 % 0.0 in
00:15 0.8 °F -0.2 °F 985.7 in Calm   3.2 mph 93 % 0.0 in
00:30 1.0 °F 0.0 °F 985.7 in Calm   4.8 mph 93 % 0.0 in
00:45 1.2 °F 0.2 °F 986.0 in NW 1.6 mph 6.4 mph 93 % 0.0 in
01:00 1.3 °F 0.3 °F 986.3 in Calm   1.6 mph 93 % 0.0 in
01:15 1.6 °F 0.5 °F 986.3 in Calm   3.2 mph 93 % 0.0 in
01:30 1.9 °F 0.7 °F 986.7 in NW 1.6 mph 4.8 mph 92 % 0.0 in
01:45 2.1 °F 0.8 °F 986.7 in NW 1.6 mph 6.4 mph 91 % 0.0 in
02:00 2.5 °F 1.0 °F 987.0 in NW 1.6 mph 8.0 mph 90 % 0.0 in
02:15 2.8 °F 1.0 °F 987.4 in NW 1.6 mph 6.4 mph 88 % 0.0 in
02:30 3.6 °F 1.6 °F 987.4 in NW 1.6 mph 11.3 mph 87 % 0.0 in
02:45 4.0 °F 1.4 °F 987.7 in NW 6.4 mph 12.9 mph 83 % 0.0 in
03:00 4.5 °F 1.5 °F 987.7 in North 3.2 mph 9.7 mph 81 % 0.0 in
03:15 5.3 °F 1.9 °F 988.0 in NW 1.6 mph 11.3 mph 79 % 0.0 in
03:30 4.7 °F 1.2 °F 988.4 in NW 6.4 mph 17.7 mph 78 % 0.0 in
03:45 4.8 °F 1.3 °F 988.7 in North 3.2 mph 11.3 mph 78 % 0.0 in
04:00 4.8 °F 1.4 °F 989.1 in North 1.6 mph 6.4 mph 79 % 0.0 in
04:15 4.6 °F 1.6 °F 989.4 in NNE 3.2 mph 11.3 mph 81 % 0.0 in
04:30 4.3 °F 1.6 °F 989.4 in North 3.2 mph 9.7 mph 83 % 0.0 in
04:45 5.1 °F 2.2 °F 989.7 in NNW 4.8 mph 11.3 mph 82 % 0.0 in
05:00 4.7 °F 1.6 °F 990.1 in NNW 6.4 mph 14.5 mph 80 % 0.0 in
05:15 5.5 °F 2.0 °F 990.1 in NNW 4.8 mph 16.1 mph 78 % 0.0 in
05:30 6.2 °F 2.1 °F 990.4 in NNW 4.8 mph 12.9 mph 75 % 0.0 in
05:45 5.9 °F 2.0 °F 990.4 in NNW 6.4 mph 16.1 mph 76 % 0.0 in
06:00 5.3 °F 1.6 °F 990.7 in NNW 6.4 mph 14.5 mph 77 % 0.0 in
06:15 5.0 °F 2.0 °F 991.1 in NW 8.0 mph 17.7 mph 81 % 0.0 in
06:30 5.1 °F 1.8 °F 991.1 in NNW 9.7 mph 29.0 mph 79 % 0.0 in
06:45 5.4 °F 2.2 °F 991.4 in NNW 6.4 mph 16.1 mph 80 % 0.0 in
07:00 5.8 °F 2.2 °F 991.4 in NNW 9.7 mph 25.7 mph 78 % 0.0 in
07:15 5.5 °F 2.1 °F 991.8 in NNW 11.3 mph 19.3 mph 79 % 0.0 in
07:30 5.5 °F 2.5 °F 992.1 in NW 11.3 mph 20.9 mph 81 % 0.0 in
07:45 5.0 °F 1.7 °F 992.8 in NNW 8.0 mph 19.3 mph 79 % 0.0 in
08:00 4.8 °F 1.6 °F 992.8 in North 4.8 mph 19.3 mph 80 % 0.0 in
08:15 4.8 °F 1.8 °F 993.1 in NNW 6.4 mph 16.1 mph 81 % 0.0 in
08:30 4.6 °F 1.4 °F 993.1 in NNW 8.0 mph 22.5 mph 80 % 0.0 in
08:45 4.4 °F 1.3 °F 993.5 in North 4.8 mph 11.3 mph 80 % 0.0 in
09:00 4.5 °F 1.2 °F 993.8 in North 4.8 mph 9.7 mph 79 % 0.0 in
09:15 4.4 °F 0.7 °F 993.8 in NNW 6.4 mph 16.1 mph 77 % 0.0 in
09:30 4.3 °F 0.4 °F 994.1 in North 6.4 mph 12.9 mph 76 % 0.0 in
09:45 4.3 °F -0.3 °F 994.5 in North 8.0 mph 22.5 mph 72 % 0.0 in
10:00 4.5 °F 0.3 °F 994.8 in North 4.8 mph 11.3 mph 74 % 0.0 in
10:15 4.8 °F 0.2 °F 995.1 in North 6.4 mph 19.3 mph 72 % 0.0 in
10:30 4.8 °F 0.0 °F 995.1 in North 8.0 mph 22.5 mph 71 % 0.0 in
10:45 4.8 °F 0.4 °F 995.5 in North 4.8 mph 11.3 mph 73 % 0.0 in
11:00 4.9 °F 0.1 °F 995.5 in North 4.8 mph 11.3 mph 71 % 0.0 in
11:15 4.8 °F 0.2 °F 995.8 in North 6.4 mph 14.5 mph 72 % 0.0 in
11:30 4.7 °F 0.1 °F 995.8 in North 4.8 mph 11.3 mph 72 % 0.0 in
11:45 4.6 °F 0.5 °F 995.8 in NNW 4.8 mph 11.3 mph 75 % 0.0 in
12:00 4.9 °F -0.1 °F 996.2 in NNW 6.4 mph 14.5 mph 70 % 0.0 in
12:15 5.2 °F -0.2 °F 996.2 in NNE 3.2 mph 9.7 mph 68 % 0.0 in
12:30 4.8 °F -1.7 °F 996.2 in North 8.0 mph 17.7 mph 63 % 0.0 in
12:45 4.3 °F -1.9 °F 996.5 in North 6.4 mph 16.1 mph 64 % 0.0 in
13:00 4.1 °F -1.7 °F 996.5 in North 4.8 mph 9.7 mph 66 % 0.0 in
13:15 3.9 °F -1.5 °F 996.8 in NNW 1.6 mph 6.4 mph 68 % 0.0 in
13:30 3.6 °F -2.0 °F 996.8 in NW 3.2 mph 12.9 mph 67 % 0.0 in
13:45 3.3 °F -1.8 °F 997.2 in NNW 3.2 mph 9.7 mph 69 % 0.0 in
14:00 2.9 °F -1.9 °F 997.2 in NW 3.2 mph 12.9 mph 71 % 0.0 in
14:15 2.6 °F -1.9 °F 997.5 in NNW 1.6 mph 8.0 mph 72 % 0.0 in
14:30 2.3 °F -2.1 °F 997.5 in NW 3.2 mph 8.0 mph 73 % 0.0 in
14:45 2.0 °F -2.0 °F 997.9 in NW 4.8 mph 9.7 mph 75 % 0.0 in
15:00 1.6 °F -2.0 °F 997.9 in NW 3.2 mph 6.4 mph 77 % 0.0 in
15:15 1.3 °F -2.1 °F 997.9 in NW 3.2 mph 8.0 mph 78 % 0.0 in
15:30 0.9 °F -2.1 °F 997.9 in NW 3.2 mph 6.4 mph 80 % 0.0 in
15:45 0.7 °F -2.2 °F 997.9 in NW 3.2 mph 6.4 mph 81 % 0.0 in
16:00 0.6 °F -2.2 °F 997.9 in NW 3.2 mph 6.4 mph 82 % 0.0 in
16:15 0.3 °F -2.4 °F 997.9 in Calm   4.8 mph 82 % 0.0 in
16:30 0.4 °F -2.1 °F 997.9 in NW 3.2 mph 6.4 mph 83 % 0.0 in
16:45 0.5 °F -2.1 °F 997.9 in Calm   6.4 mph 83 % 0.0 in
17:00 0.3 °F -2.2 °F 997.9 in NW 1.6 mph 8.0 mph 83 % 0.0 in
17:15 0.1 °F -2.4 °F 997.9 in Calm   9.7 mph 83 % 0.0 in
17:30 -0.1 °F -2.4 °F 998.2 in WNW 1.6 mph 11.3 mph 84 % 0.0 in
17:45 -0.2 °F -2.4 °F 998.2 in Calm   9.7 mph 85 % 0.0 in
18:00 -0.2 °F -2.4 °F 998.2 in WNW 1.6 mph 6.4 mph 85 % 0.0 in
18:15 -0.2 °F -2.5 °F 998.2 in WNW 1.6 mph 9.7 mph 84 % 0.0 in
18:30 -0.2 °F -2.4 °F 998.2 in WNW 1.6 mph 8.0 mph 85 % 0.0 in
18:45 -0.1 °F -2.3 °F 998.2 in WNW 1.6 mph 6.4 mph 85 % 0.0 in
19:00 0.1 °F -2.2 °F 998.2 in Calm   3.2 mph 85 % 0.0 in
19:15 0.2 °F -2.1 °F 998.2 in WNW 1.6 mph 8.0 mph 85 % 0.0 in
19:30 0.3 °F -2.1 °F 998.2 in WNW 1.6 mph 9.7 mph 84 % 0.0 in
19:45 0.6 °F -2.2 °F 998.2 in NW 3.2 mph 9.7 mph 82 % 0.0 in
20:00 0.6 °F -2.7 °F 998.2 in NW 6.4 mph 11.3 mph 79 % 0.0 in
20:15 0.4 °F -2.8 °F 998.2 in NW 6.4 mph 12.9 mph 79 % 0.0 in
20:30 0.2 °F -3.2 °F 998.2 in NW 3.2 mph 8.0 mph 78 % 0.0 in
20:45 -0.2 °F -3.4 °F 998.2 in Calm   4.8 mph 79 % 0.0 in
21:00 -0.4 °F -3.5 °F 998.2 in Calm   6.4 mph 80 % 0.0 in
21:15 -0.7 °F -3.7 °F 998.2 in WNW 1.6 mph 8.0 mph 80 % 0.0 in
21:30 -0.8 °F -3.9 °F 998.5 in WNW 1.6 mph 6.4 mph 80 % 0.0 in
21:45 -1.0 °F -4.0 °F 998.5 in Calm   8.0 mph 80 % 0.0 in
22:00 -1.0 °F -4.0 °F 998.5 in WNW 1.6 mph 8.0 mph 80 % 0.0 in
22:15 -0.9 °F -3.9 °F 998.5 in NW 3.2 mph 9.7 mph 80 % 0.0 in
22:30 -1.0 °F -4.0 °F 998.5 in Calm   6.4 mph 80 % 0.0 in
22:45 -1.2 °F -4.2 °F 998.5 in Calm   3.2 mph 80 % 0.0 in
23:00 -1.4 °F -4.3 °F 998.5 in Calm   3.2 mph 81 % 0.0 in
23:15 -1.5 °F -4.2 °F 998.5 in Calm   1.6 mph 82 % 0.0 in
23:30 -1.4 °F -4.1 °F 998.5 in Calm   3.2 mph 82 % 0.0 in
23:45 -1.3 °F -3.8 °F 998.5 in Calm   9.7 mph 83 % 0.0 in
Esan sääasema
Terveisin Weather Underground - 2.75 mb

Alkuperäinen skripti  Jim McMurry - jmcmurry@mwt.net Sovitettu myös templatelle  Wim van der Kuil - Leuven-Template.eu

Laitteet joita käytämme:

Sääasema
Davis VP2

Sääasemaohjelma
Cumulus

Sääaseman tietokone
Asus EeePC

Palveluntarjoaja
Suncomet

Davis VP2

Cumulus

Asus EeePC

Suncomet